sensor_id;sensor_type;location;lat;lon;timestamp;P1;durP1;ratioP1;P2;durP2;ratioP2
12780;SDS011;6454;43.304;24.344;2023-01-09T00:01:34;15.83;;;10.47;;
12780;SDS011;6454;43.304;24.344;2023-01-09T00:04:03;18.17;;;10.33;;
12780;SDS011;6454;43.304;24.344;2023-01-09T00:06:30;18.97;;;9.33;;
12780;SDS011;6454;43.304;24.344;2023-01-09T00:08:57;20.70;;;10.60;;
12780;SDS011;6454;43.304;24.344;2023-01-09T00:11:24;17.50;;;10.40;;
12780;SDS011;6454;43.304;24.344;2023-01-09T00:13:51;16.37;;;9.13;;
12780;SDS011;6454;43.304;24.344;2023-01-09T00:16:18;20.50;;;10.90;;
12780;SDS011;6454;43.304;24.344;2023-01-09T00:18:46;17.67;;;10.60;;
12780;SDS011;6454;43.304;24.344;2023-01-09T00:21:13;16.33;;;10.30;;
12780;SDS011;6454;43.304;24.344;2023-01-09T00:23:40;20.37;;;10.67;;
12780;SDS011;6454;43.304;24.344;2023-01-09T00:26:07;16.80;;;9.67;;
12780;SDS011;6454;43.304;24.344;2023-01-09T00:28:36;19.67;;;9.80;;
12780;SDS011;6454;43.304;24.344;2023-01-09T00:31:04;18.53;;;9.53;;
12780;SDS011;6454;43.304;24.344;2023-01-09T00:33:32;14.90;;;9.10;;
12780;SDS011;6454;43.304;24.344;2023-01-09T00:36:01;16.97;;;10.07;;
12780;SDS011;6454;43.304;24.344;2023-01-09T00:38:28;16.17;;;9.67;;
12780;SDS011;6454;43.304;24.344;2023-01-09T00:40:55;19.77;;;9.97;;
12780;SDS011;6454;43.304;24.344;2023-01-09T00:43:25;15.77;;;9.00;;
12780;SDS011;6454;43.304;24.344;2023-01-09T00:45:55;18.27;;;9.10;;
12780;SDS011;6454;43.304;24.344;2023-01-09T00:48:22;19.57;;;10.23;;
12780;SDS011;6454;43.304;24.344;2023-01-09T00:50:53;17.97;;;9.23;;
12780;SDS011;6454;43.304;24.344;2023-01-09T00:53:26;14.20;;;9.10;;
12780;SDS011;6454;43.304;24.344;2023-01-09T00:55:56;19.30;;;10.03;;
12780;SDS011;6454;43.304;24.344;2023-01-09T00:58:26;17.03;;;8.80;;
12780;SDS011;6454;43.304;24.344;2023-01-09T01:00:53;13.70;;;9.40;;
12780;SDS011;6454;43.304;24.344;2023-01-09T01:03:20;15.23;;;9.37;;
12780;SDS011;6454;43.304;24.344;2023-01-09T01:05:46;17.73;;;8.43;;
12780;SDS011;6454;43.304;24.344;2023-01-09T01:08:32;18.70;;;9.10;;
12780;SDS011;6454;43.304;24.344;2023-01-09T01:11:02;19.67;;;9.13;;
12780;SDS011;6454;43.304;24.344;2023-01-09T01:13:30;16.63;;;8.57;;
12780;SDS011;6454;43.304;24.344;2023-01-09T01:15:56;12.50;;;8.20;;
12780;SDS011;6454;43.304;24.344;2023-01-09T01:18:23;20.83;;;8.83;;
12780;SDS011;6454;43.304;24.344;2023-01-09T01:20:50;20.33;;;9.07;;
12780;SDS011;6454;43.304;24.344;2023-01-09T01:23:17;17.93;;;8.53;;
12780;SDS011;6454;43.304;24.344;2023-01-09T01:25:45;15.70;;;9.07;;
12780;SDS011;6454;43.304;24.344;2023-01-09T01:28:11;18.60;;;9.00;;
12780;SDS011;6454;43.304;24.344;2023-01-09T01:30:38;18.93;;;9.27;;
12780;SDS011;6454;43.304;24.344;2023-01-09T01:33:07;14.17;;;8.27;;
12780;SDS011;6454;43.304;24.344;2023-01-09T01:35:34;15.87;;;8.17;;
12780;SDS011;6454;43.304;24.344;2023-01-09T01:38:02;13.33;;;7.80;;
12780;SDS011;6454;43.304;24.344;2023-01-09T01:40:29;17.07;;;8.23;;
12780;SDS011;6454;43.304;24.344;2023-01-09T01:42:57;12.73;;;8.77;;
12780;SDS011;6454;43.304;24.344;2023-01-09T01:45:24;10.53;;;8.30;;
12780;SDS011;6454;43.304;24.344;2023-01-09T01:47:53;10.97;;;7.93;;
12780;SDS011;6454;43.304;24.344;2023-01-09T01:50:26;15.87;;;8.40;;
12780;SDS011;6454;43.304;24.344;2023-01-09T01:52:59;11.00;;;7.57;;
12780;SDS011;6454;43.304;24.344;2023-01-09T01:55:32;11.33;;;8.20;;
12780;SDS011;6454;43.304;24.344;2023-01-09T01:58:02;15.27;;;8.77;;
12780;SDS011;6454;43.304;24.344;2023-01-09T02:00:36;14.10;;;8.53;;
12780;SDS011;6454;43.304;24.344;2023-01-09T02:03:05;15.70;;;8.50;;
12780;SDS011;6454;43.304;24.344;2023-01-09T02:05:33;13.33;;;8.67;;
12780;SDS011;6454;43.304;24.344;2023-01-09T02:08:01;13.40;;;8.37;;
12780;SDS011;6454;43.304;24.344;2023-01-09T02:10:28;15.13;;;8.97;;
12780;SDS011;6454;43.304;24.344;2023-01-09T02:12:56;13.73;;;8.10;;
12780;SDS011;6454;43.304;24.344;2023-01-09T02:15:24;13.00;;;8.57;;
12780;SDS011;6454;43.304;24.344;2023-01-09T02:18:04;12.43;;;8.33;;
12780;SDS011;6454;43.304;24.344;2023-01-09T02:20:42;14.10;;;8.20;;
12780;SDS011;6454;43.304;24.344;2023-01-09T02:26:34;14.70;;;7.53;;
12780;SDS011;6454;43.304;24.344;2023-01-09T02:29:20;15.07;;;7.77;;
12780;SDS011;6454;43.304;24.344;2023-01-09T02:32:05;11.53;;;7.10;;
12780;SDS011;6454;43.304;24.344;2023-01-09T02:34:41;11.33;;;7.70;;
12780;SDS011;6454;43.304;24.344;2023-01-09T02:37:19;12.23;;;8.43;;
12780;SDS011;6454;43.304;24.344;2023-01-09T02:39:59;11.97;;;7.67;;
12780;SDS011;6454;43.304;24.344;2023-01-09T02:42:34;15.20;;;7.17;;
12780;SDS011;6454;43.304;24.344;2023-01-09T02:45:04;17.30;;;7.80;;
12780;SDS011;6454;43.304;24.344;2023-01-09T02:47:37;17.43;;;8.23;;
12780;SDS011;6454;43.304;24.344;2023-01-09T02:50:06;13.87;;;8.27;;
12780;SDS011;6454;43.304;24.344;2023-01-09T02:52:40;16.10;;;8.00;;
12780;SDS011;6454;43.304;24.344;2023-01-09T02:55:18;11.77;;;7.80;;
12780;SDS011;6454;43.304;24.344;2023-01-09T02:57:58;17.73;;;7.77;;
12780;SDS011;6454;43.304;24.344;2023-01-09T03:00:33;17.40;;;7.37;;
12780;SDS011;6454;43.304;24.344;2023-01-09T03:03:08;18.47;;;7.67;;
12780;SDS011;6454;43.304;24.344;2023-01-09T03:05:39;22.70;;;7.63;;
12780;SDS011;6454;43.304;24.344;2023-01-09T03:08:10;18.93;;;8.23;;
12780;SDS011;6454;43.304;24.344;2023-01-09T03:10:40;18.23;;;8.50;;
12780;SDS011;6454;43.304;24.344;2023-01-09T03:13:15;17.47;;;7.17;;
12780;SDS011;6454;43.304;24.344;2023-01-09T03:15:45;20.70;;;8.70;;
12780;SDS011;6454;43.304;24.344;2023-01-09T03:18:16;14.47;;;8.97;;
12780;SDS011;6454;43.304;24.344;2023-01-09T03:20:46;14.17;;;8.97;;
12780;SDS011;6454;43.304;24.344;2023-01-09T03:23:14;11.93;;;7.70;;
12780;SDS011;6454;43.304;24.344;2023-01-09T03:25:40;14.87;;;9.03;;
12780;SDS011;6454;43.304;24.344;2023-01-09T03:28:08;19.03;;;8.30;;
12780;SDS011;6454;43.304;24.344;2023-01-09T03:30:43;12.80;;;8.80;;
12780;SDS011;6454;43.304;24.344;2023-01-09T03:33:10;15.97;;;9.20;;
12780;SDS011;6454;43.304;24.344;2023-01-09T03:35:38;17.47;;;9.10;;
12780;SDS011;6454;43.304;24.344;2023-01-09T03:38:05;19.87;;;9.37;;
12780;SDS011;6454;43.304;24.344;2023-01-09T03:40:31;12.57;;;7.87;;
12780;SDS011;6454;43.304;24.344;2023-01-09T03:42:58;14.37;;;8.67;;
12780;SDS011;6454;43.304;24.344;2023-01-09T03:45:25;17.20;;;8.30;;
12780;SDS011;6454;43.304;24.344;2023-01-09T03:47:52;14.63;;;8.60;;
12780;SDS011;6454;43.304;24.344;2023-01-09T03:50:18;20.43;;;8.40;;
12780;SDS011;6454;43.304;24.344;2023-01-09T03:52:47;14.73;;;8.00;;
12780;SDS011;6454;43.304;24.344;2023-01-09T03:55:13;15.13;;;7.83;;
12780;SDS011;6454;43.304;24.344;2023-01-09T03:57:40;17.90;;;7.33;;
12780;SDS011;6454;43.304;24.344;2023-01-09T04:00:08;17.37;;;7.50;;
12780;SDS011;6454;43.304;24.344;2023-01-09T04:02:35;23.33;;;7.57;;
12780;SDS011;6454;43.304;24.344;2023-01-09T04:05:02;20.80;;;7.13;;
12780;SDS011;6454;43.304;24.344;2023-01-09T04:07:29;12.10;;;6.23;;
12780;SDS011;6454;43.304;24.344;2023-01-09T04:09:57;9.37;;;6.80;;
12780;SDS011;6454;43.304;24.344;2023-01-09T04:12:24;17.27;;;7.60;;
12780;SDS011;6454;43.304;24.344;2023-01-09T04:14:51;15.17;;;7.67;;
12780;SDS011;6454;43.304;24.344;2023-01-09T04:17:17;24.00;;;7.60;;
12780;SDS011;6454;43.304;24.344;2023-01-09T04:19:44;17.00;;;8.10;;
12780;SDS011;6454;43.304;24.344;2023-01-09T04:22:11;12.07;;;7.57;;
12780;SDS011;6454;43.304;24.344;2023-01-09T04:24:38;15.80;;;7.70;;
12780;SDS011;6454;43.304;24.344;2023-01-09T04:27:06;12.17;;;7.33;;
12780;SDS011;6454;43.304;24.344;2023-01-09T04:29:32;11.47;;;7.93;;
12780;SDS011;6454;43.304;24.344;2023-01-09T04:31:59;10.97;;;7.40;;
12780;SDS011;6454;43.304;24.344;2023-01-09T04:34:26;12.10;;;7.73;;
12780;SDS011;6454;43.304;24.344;2023-01-09T04:36:53;15.43;;;7.73;;
12780;SDS011;6454;43.304;24.344;2023-01-09T04:39:21;17.53;;;7.30;;
12780;SDS011;6454;43.304;24.344;2023-01-09T04:41:48;12.23;;;7.60;;
12780;SDS011;6454;43.304;24.344;2023-01-09T04:44:16;11.00;;;7.20;;
12780;SDS011;6454;43.304;24.344;2023-01-09T04:46:44;11.80;;;7.20;;
12780;SDS011;6454;43.304;24.344;2023-01-09T04:49:11;15.00;;;8.00;;
12780;SDS011;6454;43.304;24.344;2023-01-09T04:51:38;11.73;;;7.90;;
12780;SDS011;6454;43.304;24.344;2023-01-09T04:54:05;11.40;;;7.73;;
12780;SDS011;6454;43.304;24.344;2023-01-09T04:56:32;16.07;;;8.67;;
12780;SDS011;6454;43.304;24.344;2023-01-09T04:58:59;13.70;;;8.43;;
12780;SDS011;6454;43.304;24.344;2023-01-09T05:01:27;13.73;;;7.93;;
12780;SDS011;6454;43.304;24.344;2023-01-09T05:03:54;16.37;;;7.37;;
12780;SDS011;6454;43.304;24.344;2023-01-09T05:06:21;13.30;;;7.93;;
12780;SDS011;6454;43.304;24.344;2023-01-09T05:08:47;18.20;;;7.77;;
12780;SDS011;6454;43.304;24.344;2023-01-09T05:11:14;13.17;;;7.60;;
12780;SDS011;6454;43.304;24.344;2023-01-09T05:13:41;11.87;;;8.20;;
12780;SDS011;6454;43.304;24.344;2023-01-09T05:16:08;10.57;;;7.50;;
12780;SDS011;6454;43.304;24.344;2023-01-09T05:18:36;16.97;;;9.63;;
12780;SDS011;6454;43.304;24.344;2023-01-09T05:21:03;21.63;;;10.93;;
12780;SDS011;6454;43.304;24.344;2023-01-09T05:23:30;15.50;;;8.93;;
12780;SDS011;6454;43.304;24.344;2023-01-09T05:25:56;25.20;;;10.03;;
12780;SDS011;6454;43.304;24.344;2023-01-09T05:28:23;26.40;;;13.00;;
12780;SDS011;6454;43.304;24.344;2023-01-09T05:30:50;17.43;;;9.17;;
12780;SDS011;6454;43.304;24.344;2023-01-09T05:33:17;14.57;;;8.17;;
12780;SDS011;6454;43.304;24.344;2023-01-09T05:35:45;11.17;;;7.47;;
12780;SDS011;6454;43.304;24.344;2023-01-09T05:38:12;9.00;;;6.87;;
12780;SDS011;6454;43.304;24.344;2023-01-09T05:40:38;17.03;;;7.77;;
12780;SDS011;6454;43.304;24.344;2023-01-09T05:43:05;17.63;;;9.57;;
12780;SDS011;6454;43.304;24.344;2023-01-09T05:45:32;10.90;;;7.07;;
12780;SDS011;6454;43.304;24.344;2023-01-09T05:47:59;10.93;;;7.03;;
12780;SDS011;6454;43.304;24.344;2023-01-09T05:50:26;9.40;;;6.87;;
12780;SDS011;6454;43.304;24.344;2023-01-09T05:52:54;11.13;;;7.50;;
12780;SDS011;6454;43.304;24.344;2023-01-09T05:55:21;10.53;;;6.80;;
12780;SDS011;6454;43.304;24.344;2023-01-09T05:57:48;9.60;;;6.83;;
12780;SDS011;6454;43.304;24.344;2023-01-09T06:00:15;11.77;;;7.43;;
12780;SDS011;6454;43.304;24.344;2023-01-09T06:02:42;9.60;;;7.53;;
12780;SDS011;6454;43.304;24.344;2023-01-09T06:05:09;10.33;;;7.20;;
12780;SDS011;6454;43.304;24.344;2023-01-09T06:07:36;9.93;;;6.77;;
12780;SDS011;6454;43.304;24.344;2023-01-09T06:10:06;10.23;;;7.33;;
12780;SDS011;6454;43.304;24.344;2023-01-09T06:12:35;9.03;;;6.57;;
12780;SDS011;6454;43.304;24.344;2023-01-09T06:15:02;10.10;;;6.70;;
12780;SDS011;6454;43.304;24.344;2023-01-09T06:17:30;10.03;;;7.67;;
12780;SDS011;6454;43.304;24.344;2023-01-09T06:19:57;9.90;;;7.57;;
12780;SDS011;6454;43.304;24.344;2023-01-09T06:22:23;11.60;;;7.47;;
12780;SDS011;6454;43.304;24.344;2023-01-09T06:24:50;13.47;;;8.67;;
12780;SDS011;6454;43.304;24.344;2023-01-09T06:27:18;10.83;;;8.27;;
12780;SDS011;6454;43.304;24.344;2023-01-09T06:29:45;12.40;;;8.37;;
12780;SDS011;6454;43.304;24.344;2023-01-09T06:32:12;15.73;;;10.00;;
12780;SDS011;6454;43.304;24.344;2023-01-09T06:34:39;14.77;;;9.70;;
12780;SDS011;6454;43.304;24.344;2023-01-09T06:37:05;12.90;;;9.70;;
12780;SDS011;6454;43.304;24.344;2023-01-09T06:39:32;16.10;;;10.33;;
12780;SDS011;6454;43.304;24.344;2023-01-09T06:41:59;20.87;;;12.43;;
12780;SDS011;6454;43.304;24.344;2023-01-09T06:44:27;19.07;;;10.60;;
12780;SDS011;6454;43.304;24.344;2023-01-09T06:46:54;15.67;;;10.50;;
12780;SDS011;6454;43.304;24.344;2023-01-09T06:49:20;15.30;;;9.73;;
12780;SDS011;6454;43.304;24.344;2023-01-09T06:51:48;13.00;;;8.77;;
12780;SDS011;6454;43.304;24.344;2023-01-09T06:54:16;15.00;;;10.70;;
12780;SDS011;6454;43.304;24.344;2023-01-09T06:56:43;15.70;;;9.90;;
12780;SDS011;6454;43.304;24.344;2023-01-09T06:59:10;14.80;;;9.30;;
12780;SDS011;6454;43.304;24.344;2023-01-09T07:01:38;15.43;;;9.97;;
12780;SDS011;6454;43.304;24.344;2023-01-09T07:04:05;12.33;;;8.87;;
12780;SDS011;6454;43.304;24.344;2023-01-09T07:06:33;16.20;;;11.20;;
12780;SDS011;6454;43.304;24.344;2023-01-09T07:09:00;23.13;;;10.93;;
12780;SDS011;6454;43.304;24.344;2023-01-09T07:11:26;13.90;;;9.80;;
12780;SDS011;6454;43.304;24.344;2023-01-09T07:13:53;15.60;;;10.30;;
12780;SDS011;6454;43.304;24.344;2023-01-09T07:16:20;15.50;;;10.13;;
12780;SDS011;6454;43.304;24.344;2023-01-09T07:18:48;14.83;;;10.37;;
12780;SDS011;6454;43.304;24.344;2023-01-09T07:21:16;15.50;;;10.20;;
12780;SDS011;6454;43.304;24.344;2023-01-09T07:23:43;15.03;;;10.43;;
12780;SDS011;6454;43.304;24.344;2023-01-09T07:26:10;15.60;;;10.43;;
12780;SDS011;6454;43.304;24.344;2023-01-09T07:28:36;20.47;;;11.67;;
12780;SDS011;6454;43.304;24.344;2023-01-09T07:31:03;18.27;;;11.40;;
12780;SDS011;6454;43.304;24.344;2023-01-09T07:33:31;19.03;;;11.90;;
12780;SDS011;6454;43.304;24.344;2023-01-09T07:36:00;17.00;;;10.77;;
12780;SDS011;6454;43.304;24.344;2023-01-09T07:38:27;17.50;;;11.30;;
12780;SDS011;6454;43.304;24.344;2023-01-09T07:40:53;18.30;;;12.30;;
12780;SDS011;6454;43.304;24.344;2023-01-09T07:43:20;20.53;;;12.33;;
12780;SDS011;6454;43.304;24.344;2023-01-09T07:45:47;17.70;;;11.87;;
12780;SDS011;6454;43.304;24.344;2023-01-09T07:48:14;19.27;;;11.97;;
12780;SDS011;6454;43.304;24.344;2023-01-09T07:50:40;20.50;;;12.83;;
12780;SDS011;6454;43.304;24.344;2023-01-09T07:53:09;22.73;;;14.07;;
12780;SDS011;6454;43.304;24.344;2023-01-09T07:55:35;23.40;;;14.07;;
12780;SDS011;6454;43.304;24.344;2023-01-09T07:58:02;22.93;;;15.57;;
12780;SDS011;6454;43.304;24.344;2023-01-09T08:00:29;23.30;;;14.93;;
12780;SDS011;6454;43.304;24.344;2023-01-09T08:02:55;23.63;;;15.50;;
12780;SDS011;6454;43.304;24.344;2023-01-09T08:05:22;25.37;;;16.27;;
12780;SDS011;6454;43.304;24.344;2023-01-09T08:07:49;23.77;;;16.07;;
12780;SDS011;6454;43.304;24.344;2023-01-09T08:10:17;28.07;;;17.07;;
12780;SDS011;6454;43.304;24.344;2023-01-09T08:12:45;25.00;;;15.33;;
12780;SDS011;6454;43.304;24.344;2023-01-09T08:15:12;25.60;;;15.57;;
12780;SDS011;6454;43.304;24.344;2023-01-09T08:17:39;25.33;;;15.93;;
12780;SDS011;6454;43.304;24.344;2023-01-09T08:20:07;21.73;;;13.57;;
12780;SDS011;6454;43.304;24.344;2023-01-09T08:22:36;20.77;;;14.20;;
12780;SDS011;6454;43.304;24.344;2023-01-09T08:25:03;26.13;;;16.37;;
12780;SDS011;6454;43.304;24.344;2023-01-09T08:27:32;18.63;;;12.70;;
12780;SDS011;6454;43.304;24.344;2023-01-09T08:29:59;18.77;;;13.07;;
12780;SDS011;6454;43.304;24.344;2023-01-09T08:32:26;18.47;;;12.83;;
12780;SDS011;6454;43.304;24.344;2023-01-09T08:34:52;17.30;;;12.37;;
12780;SDS011;6454;43.304;24.344;2023-01-09T08:37:19;21.97;;;12.93;;
12780;SDS011;6454;43.304;24.344;2023-01-09T08:39:46;16.63;;;12.17;;
12780;SDS011;6454;43.304;24.344;2023-01-09T08:42:12;16.53;;;12.47;;
12780;SDS011;6454;43.304;24.344;2023-01-09T08:44:58;22.07;;;11.90;;
12780;SDS011;6454;43.304;24.344;2023-01-09T08:47:42;17.97;;;12.40;;
12780;SDS011;6454;43.304;24.344;2023-01-09T08:50:09;17.30;;;12.10;;
12780;SDS011;6454;43.304;24.344;2023-01-09T08:52:37;18.37;;;12.90;;
12780;SDS011;6454;43.304;24.344;2023-01-09T08:55:04;18.10;;;12.20;;
12780;SDS011;6454;43.304;24.344;2023-01-09T08:57:31;19.03;;;13.67;;
12780;SDS011;6454;43.304;24.344;2023-01-09T08:59:59;19.00;;;13.40;;
12780;SDS011;6454;43.304;24.344;2023-01-09T09:02:26;17.77;;;12.87;;
12780;SDS011;6454;43.304;24.344;2023-01-09T09:04:53;20.40;;;13.73;;
12780;SDS011;6454;43.304;24.344;2023-01-09T09:07:20;18.70;;;13.40;;
12780;SDS011;6454;43.304;24.344;2023-01-09T09:09:50;18.73;;;12.53;;
12780;SDS011;6454;43.304;24.344;2023-01-09T09:12:18;18.57;;;12.70;;
12780;SDS011;6454;43.304;24.344;2023-01-09T09:14:45;17.33;;;13.00;;
12780;SDS011;6454;43.304;24.344;2023-01-09T09:17:30;16.50;;;12.23;;
12780;SDS011;6454;43.304;24.344;2023-01-09T09:19:57;16.47;;;12.20;;
12780;SDS011;6454;43.304;24.344;2023-01-09T09:22:24;19.23;;;12.50;;
12780;SDS011;6454;43.304;24.344;2023-01-09T09:24:51;18.27;;;13.33;;
12780;SDS011;6454;43.304;24.344;2023-01-09T09:27:18;18.80;;;12.87;;
12780;SDS011;6454;43.304;24.344;2023-01-09T09:29:45;18.03;;;11.87;;
12780;SDS011;6454;43.304;24.344;2023-01-09T09:32:12;20.70;;;13.57;;
12780;SDS011;6454;43.304;24.344;2023-01-09T09:34:40;19.27;;;14.03;;
12780;SDS011;6454;43.304;24.344;2023-01-09T09:37:07;19.23;;;13.07;;
12780;SDS011;6454;43.304;24.344;2023-01-09T09:39:33;19.57;;;13.10;;
12780;SDS011;6454;43.304;24.344;2023-01-09T09:42:05;18.70;;;12.90;;
12780;SDS011;6454;43.304;24.344;2023-01-09T09:45:12;18.33;;;13.47;;
12780;SDS011;6454;43.304;24.344;2023-01-09T09:47:50;18.57;;;12.53;;
12780;SDS011;6454;43.304;24.344;2023-01-09T09:50:28;18.90;;;13.37;;
12780;SDS011;6454;43.304;24.344;2023-01-09T09:53:07;18.73;;;13.10;;
12780;SDS011;6454;43.304;24.344;2023-01-09T09:55:39;20.67;;;13.63;;
12780;SDS011;6454;43.304;24.344;2023-01-09T09:58:09;19.07;;;13.17;;
12780;SDS011;6454;43.304;24.344;2023-01-09T10:00:45;19.23;;;13.43;;
12780;SDS011;6454;43.304;24.344;2023-01-09T10:03:15;20.07;;;13.50;;
12780;SDS011;6454;43.304;24.344;2023-01-09T10:05:51;19.70;;;14.27;;
12780;SDS011;6454;43.304;24.344;2023-01-09T10:08:22;21.27;;;14.10;;
12780;SDS011;6454;43.304;24.344;2023-01-09T10:11:00;22.83;;;14.07;;
12780;SDS011;6454;43.304;24.344;2023-01-09T10:13:27;18.37;;;13.33;;
12780;SDS011;6454;43.304;24.344;2023-01-09T10:16:15;21.03;;;14.27;;
12780;SDS011;6454;43.304;24.344;2023-01-09T10:18:55;19.57;;;13.93;;
12780;SDS011;6454;43.304;24.344;2023-01-09T10:21:32;19.47;;;13.40;;
12780;SDS011;6454;43.304;24.344;2023-01-09T10:24:12;17.33;;;13.30;;
12780;SDS011;6454;43.304;24.344;2023-01-09T10:26:51;20.50;;;14.47;;
12780;SDS011;6454;43.304;24.344;2023-01-09T10:32:21;23.67;;;15.27;;
12780;SDS011;6454;43.304;24.344;2023-01-09T10:35:04;26.97;;;18.20;;
12780;SDS011;6454;43.304;24.344;2023-01-09T10:37:47;23.87;;;16.00;;
12780;SDS011;6454;43.304;24.344;2023-01-09T10:40:18;20.57;;;13.77;;
12780;SDS011;6454;43.304;24.344;2023-01-09T10:42:50;21.63;;;14.80;;
12780;SDS011;6454;43.304;24.344;2023-01-09T10:45:22;22.63;;;13.70;;
12780;SDS011;6454;43.304;24.344;2023-01-09T10:47:56;21.57;;;13.60;;
12780;SDS011;6454;43.304;24.344;2023-01-09T10:50:28;22.33;;;14.43;;
12780;SDS011;6454;43.304;24.344;2023-01-09T10:53:01;18.93;;;13.57;;
12780;SDS011;6454;43.304;24.344;2023-01-09T10:55:41;25.07;;;16.77;;
12780;SDS011;6454;43.304;24.344;2023-01-09T10:58:11;24.07;;;15.13;;
12780;SDS011;6454;43.304;24.344;2023-01-09T11:00:39;20.87;;;14.33;;
12780;SDS011;6454;43.304;24.344;2023-01-09T11:03:09;20.30;;;14.27;;
12780;SDS011;6454;43.304;24.344;2023-01-09T11:05:37;23.97;;;15.17;;
12780;SDS011;6454;43.304;24.344;2023-01-09T11:08:10;20.50;;;14.53;;
12780;SDS011;6454;43.304;24.344;2023-01-09T11:10:47;24.90;;;15.97;;
12780;SDS011;6454;43.304;24.344;2023-01-09T11:13:17;25.20;;;16.23;;
12780;SDS011;6454;43.304;24.344;2023-01-09T11:15:48;22.17;;;16.30;;
12780;SDS011;6454;43.304;24.344;2023-01-09T11:18:30;23.83;;;16.23;;
12780;SDS011;6454;43.304;24.344;2023-01-09T11:21:10;21.07;;;16.07;;
12780;SDS011;6454;43.304;24.344;2023-01-09T11:23:40;26.90;;;17.40;;
12780;SDS011;6454;43.304;24.344;2023-01-09T11:26:08;29.90;;;17.23;;
12780;SDS011;6454;43.304;24.344;2023-01-09T11:29:03;24.63;;;17.57;;
12780;SDS011;6454;43.304;24.344;2023-01-09T11:31:31;25.70;;;17.53;;
12780;SDS011;6454;43.304;24.344;2023-01-09T11:33:59;29.33;;;18.63;;
12780;SDS011;6454;43.304;24.344;2023-01-09T11:36:26;24.20;;;17.20;;
12780;SDS011;6454;43.304;24.344;2023-01-09T11:38:55;27.90;;;18.10;;
12780;SDS011;6454;43.304;24.344;2023-01-09T11:41:23;29.07;;;19.57;;
12780;SDS011;6454;43.304;24.344;2023-01-09T11:43:54;30.37;;;20.03;;
12780;SDS011;6454;43.304;24.344;2023-01-09T11:46:30;34.10;;;21.33;;
12780;SDS011;6454;43.304;24.344;2023-01-09T11:48:59;35.63;;;21.90;;
12780;SDS011;6454;43.304;24.344;2023-01-09T11:51:27;37.30;;;22.47;;
12780;SDS011;6454;43.304;24.344;2023-01-09T11:54:10;37.33;;;22.60;;
12780;SDS011;6454;43.304;24.344;2023-01-09T11:56:41;42.80;;;24.87;;
12780;SDS011;6454;43.304;24.344;2023-01-09T11:59:10;46.10;;;27.50;;
12780;SDS011;6454;43.304;24.344;2023-01-09T12:04:40;46.63;;;25.97;;
12780;SDS011;6454;43.304;24.344;2023-01-09T12:07:21;49.50;;;28.53;;
12780;SDS011;6454;43.304;24.344;2023-01-09T12:10:04;42.30;;;25.40;;
12780;SDS011;6454;43.304;24.344;2023-01-09T12:12:49;36.67;;;23.07;;
12780;SDS011;6454;43.304;24.344;2023-01-09T12:15:24;33.97;;;21.03;;
12780;SDS011;6454;43.304;24.344;2023-01-09T12:18:02;38.17;;;22.67;;
12780;SDS011;6454;43.304;24.344;2023-01-09T12:21:03;34.73;;;21.13;;
12780;SDS011;6454;43.304;24.344;2023-01-09T12:23:42;33.30;;;21.00;;
12780;SDS011;6454;43.304;24.344;2023-01-09T12:26:20;38.87;;;23.50;;
12780;SDS011;6454;43.304;24.344;2023-01-09T12:28:56;34.93;;;21.40;;
12780;SDS011;6454;43.304;24.344;2023-01-09T12:34:35;30.30;;;19.60;;
12780;SDS011;6454;43.304;24.344;2023-01-09T12:37:32;30.90;;;19.43;;
12780;SDS011;6454;43.304;24.344;2023-01-09T12:40:11;28.10;;;19.63;;
12780;SDS011;6454;43.304;24.344;2023-01-09T12:42:53;29.90;;;18.53;;
12780;SDS011;6454;43.304;24.344;2023-01-09T12:45:33;27.70;;;19.67;;
12780;SDS011;6454;43.304;24.344;2023-01-09T12:48:08;29.97;;;20.03;;
12780;SDS011;6454;43.304;24.344;2023-01-09T12:50:54;33.97;;;23.43;;
12780;SDS011;6454;43.304;24.344;2023-01-09T12:53:34;31.90;;;20.30;;
12780;SDS011;6454;43.304;24.344;2023-01-09T12:56:06;30.10;;;20.23;;
12780;SDS011;6454;43.304;24.344;2023-01-09T12:58:42;32.07;;;20.13;;
12780;SDS011;6454;43.304;24.344;2023-01-09T13:01:13;31.10;;;21.60;;
12780;SDS011;6454;43.304;24.344;2023-01-09T13:03:47;33.13;;;21.93;;
12780;SDS011;6454;43.304;24.344;2023-01-09T13:06:23;30.80;;;21.27;;
12780;SDS011;6454;43.304;24.344;2023-01-09T13:09:04;34.17;;;22.70;;
12780;SDS011;6454;43.304;24.344;2023-01-09T13:11:39;33.80;;;20.23;;
12780;SDS011;6454;43.304;24.344;2023-01-09T13:14:15;30.30;;;20.53;;
12780;SDS011;6454;43.304;24.344;2023-01-09T13:16:47;28.93;;;19.83;;
12780;SDS011;6454;43.304;24.344;2023-01-09T13:19:20;31.17;;;21.00;;
12780;SDS011;6454;43.304;24.344;2023-01-09T13:21:50;31.20;;;20.13;;
12780;SDS011;6454;43.304;24.344;2023-01-09T13:24:19;33.60;;;21.67;;
12780;SDS011;6454;43.304;24.344;2023-01-09T13:26:51;34.07;;;20.70;;
12780;SDS011;6454;43.304;24.344;2023-01-09T13:29:23;31.33;;;20.90;;
12780;SDS011;6454;43.304;24.344;2023-01-09T13:32:00;34.03;;;22.07;;
12780;SDS011;6454;43.304;24.344;2023-01-09T13:34:41;35.97;;;22.63;;
12780;SDS011;6454;43.304;24.344;2023-01-09T13:37:18;34.93;;;22.77;;
12780;SDS011;6454;43.304;24.344;2023-01-09T13:39:53;34.90;;;22.17;;
12780;SDS011;6454;43.304;24.344;2023-01-09T13:42:22;31.83;;;21.73;;
12780;SDS011;6454;43.304;24.344;2023-01-09T13:45:17;36.73;;;22.30;;
12780;SDS011;6454;43.304;24.344;2023-01-09T13:47:51;31.20;;;21.67;;
12780;SDS011;6454;43.304;24.344;2023-01-09T13:50:53;30.63;;;20.57;;
12780;SDS011;6454;43.304;24.344;2023-01-09T13:54:09;29.40;;;20.47;;
12780;SDS011;6454;43.304;24.344;2023-01-09T13:59:36;27.40;;;18.37;;
12780;SDS011;6454;43.304;24.344;2023-01-09T14:02:07;26.73;;;18.40;;
12780;SDS011;6454;43.304;24.344;2023-01-09T14:05:13;27.03;;;16.93;;
12780;SDS011;6454;43.304;24.344;2023-01-09T14:07:41;28.63;;;18.53;;
12780;SDS011;6454;43.304;24.344;2023-01-09T14:10:19;27.70;;;17.90;;
12780;SDS011;6454;43.304;24.344;2023-01-09T14:12:48;31.37;;;17.93;;
12780;SDS011;6454;43.304;24.344;2023-01-09T14:15:22;28.57;;;18.97;;
12780;SDS011;6454;43.304;24.344;2023-01-09T14:17:58;33.53;;;19.17;;
12780;SDS011;6454;43.304;24.344;2023-01-09T14:20:27;31.43;;;18.80;;
12780;SDS011;6454;43.304;24.344;2023-01-09T14:22:58;28.53;;;17.87;;
12780;SDS011;6454;43.304;24.344;2023-01-09T14:25:27;29.13;;;18.70;;
12780;SDS011;6454;43.304;24.344;2023-01-09T14:28:03;29.80;;;17.37;;
12780;SDS011;6454;43.304;24.344;2023-01-09T14:30:35;33.37;;;19.80;;
12780;SDS011;6454;43.304;24.344;2023-01-09T14:33:23;26.43;;;18.07;;
12780;SDS011;6454;43.304;24.344;2023-01-09T14:35:53;28.80;;;19.23;;
12780;SDS011;6454;43.304;24.344;2023-01-09T14:38:28;33.13;;;19.67;;
12780;SDS011;6454;43.304;24.344;2023-01-09T14:41:02;34.67;;;20.27;;
12780;SDS011;6454;43.304;24.344;2023-01-09T14:43:45;26.90;;;17.07;;
12780;SDS011;6454;43.304;24.344;2023-01-09T14:46:17;28.37;;;17.17;;
12780;SDS011;6454;43.304;24.344;2023-01-09T14:48:57;34.37;;;17.73;;
12780;SDS011;6454;43.304;24.344;2023-01-09T14:51:30;31.37;;;17.67;;
12780;SDS011;6454;43.304;24.344;2023-01-09T14:54:02;27.93;;;18.13;;
12780;SDS011;6454;43.304;24.344;2023-01-09T14:56:43;30.63;;;17.63;;
12780;SDS011;6454;43.304;24.344;2023-01-09T14:59:12;30.00;;;18.10;;
12780;SDS011;6454;43.304;24.344;2023-01-09T15:01:41;33.33;;;19.40;;
12780;SDS011;6454;43.304;24.344;2023-01-09T15:04:19;35.10;;;19.03;;
12780;SDS011;6454;43.304;24.344;2023-01-09T15:06:50;31.13;;;19.33;;